sensor_id;sensor_type;location;lat;lon;timestamp;P1;durP1;ratioP1;P2;durP2;ratioP2
76752;SDS011;65687;51.308;16.916;2024-02-15T00:01:20;28.30;;;18.30;;
76752;SDS011;65687;51.308;16.916;2024-02-15T00:06:22;34.40;;;19.40;;
76752;SDS011;65687;51.308;16.916;2024-02-15T00:11:23;31.70;;;17.80;;
76752;SDS011;65687;51.308;16.916;2024-02-15T00:16:25;33.70;;;20.00;;
76752;SDS011;65687;51.308;16.916;2024-02-15T00:21:28;27.70;;;17.10;;
76752;SDS011;65687;51.308;16.916;2024-02-15T00:26:30;29.50;;;18.30;;
76752;SDS011;65687;51.308;16.916;2024-02-15T00:31:33;29.90;;;19.40;;
76752;SDS011;65687;51.308;16.916;2024-02-15T00:36:35;33.30;;;19.90;;
76752;SDS011;65687;51.308;16.916;2024-02-15T00:41:37;30.00;;;19.90;;
76752;SDS011;65687;51.308;16.916;2024-02-15T00:46:43;30.30;;;19.60;;
76752;SDS011;65687;51.308;16.916;2024-02-15T00:51:45;24.90;;;16.30;;
76752;SDS011;65687;51.308;16.916;2024-02-15T00:56:46;34.30;;;20.40;;
76752;SDS011;65687;51.308;16.916;2024-02-15T01:01:48;26.00;;;15.80;;
76752;SDS011;65687;51.308;16.916;2024-02-15T01:06:50;30.10;;;18.00;;
76752;SDS011;65687;51.308;16.916;2024-02-15T01:11:51;29.90;;;18.80;;
76752;SDS011;65687;51.308;16.916;2024-02-15T01:16:53;28.20;;;19.00;;
76752;SDS011;65687;51.308;16.916;2024-02-15T01:21:55;27.80;;;17.50;;
76752;SDS011;65687;51.308;16.916;2024-02-15T01:26:59;24.00;;;14.60;;
76752;SDS011;65687;51.308;16.916;2024-02-15T01:32:00;29.00;;;16.40;;
76752;SDS011;65687;51.308;16.916;2024-02-15T01:37:03;21.70;;;13.00;;
76752;SDS011;65687;51.308;16.916;2024-02-15T01:42:05;22.10;;;13.40;;
76752;SDS011;65687;51.308;16.916;2024-02-15T01:47:07;27.20;;;15.00;;
76752;SDS011;65687;51.308;16.916;2024-02-15T01:52:09;27.20;;;15.70;;
76752;SDS011;65687;51.308;16.916;2024-02-15T01:57:11;20.20;;;13.60;;
76752;SDS011;65687;51.308;16.916;2024-02-15T02:02:13;19.70;;;13.30;;
76752;SDS011;65687;51.308;16.916;2024-02-15T02:07:17;22.00;;;13.40;;
76752;SDS011;65687;51.308;16.916;2024-02-15T02:12:19;22.80;;;13.90;;
76752;SDS011;65687;51.308;16.916;2024-02-15T02:17:21;23.90;;;13.30;;
76752;SDS011;65687;51.308;16.916;2024-02-15T02:22:22;22.70;;;13.70;;
76752;SDS011;65687;51.308;16.916;2024-02-15T02:27:26;25.30;;;15.00;;
76752;SDS011;65687;51.308;16.916;2024-02-15T02:32:29;23.00;;;14.70;;
76752;SDS011;65687;51.308;16.916;2024-02-15T02:37:30;19.90;;;11.80;;
76752;SDS011;65687;51.308;16.916;2024-02-15T02:42:32;21.60;;;13.50;;
76752;SDS011;65687;51.308;16.916;2024-02-15T02:47:34;16.50;;;10.70;;
76752;SDS011;65687;51.308;16.916;2024-02-15T02:52:36;22.80;;;13.60;;
76752;SDS011;65687;51.308;16.916;2024-02-15T02:57:40;16.50;;;11.50;;
76752;SDS011;65687;51.308;16.916;2024-02-15T03:02:43;19.40;;;12.20;;
76752;SDS011;65687;51.308;16.916;2024-02-15T03:07:45;22.80;;;13.40;;
76752;SDS011;65687;51.308;16.916;2024-02-15T03:12:47;20.00;;;13.00;;
76752;SDS011;65687;51.308;16.916;2024-02-15T03:17:49;23.90;;;14.10;;
76752;SDS011;65687;51.308;16.916;2024-02-15T03:22:54;20.00;;;13.80;;
76752;SDS011;65687;51.308;16.916;2024-02-15T03:27:58;21.60;;;13.70;;
76752;SDS011;65687;51.308;16.916;2024-02-15T03:33:04;17.80;;;11.60;;
76752;SDS011;65687;51.308;16.916;2024-02-15T03:38:06;17.00;;;10.40;;
76752;SDS011;65687;51.308;16.916;2024-02-15T03:43:08;15.20;;;10.50;;
76752;SDS011;65687;51.308;16.916;2024-02-15T03:48:10;20.40;;;13.20;;
76752;SDS011;65687;51.308;16.916;2024-02-15T03:53:12;16.10;;;11.70;;
76752;SDS011;65687;51.308;16.916;2024-02-15T03:58:15;18.30;;;11.00;;
76752;SDS011;65687;51.308;16.916;2024-02-15T04:03:17;19.70;;;12.60;;
76752;SDS011;65687;51.308;16.916;2024-02-15T04:08:19;20.50;;;12.40;;
76752;SDS011;65687;51.308;16.916;2024-02-15T04:13:21;17.90;;;12.40;;
76752;SDS011;65687;51.308;16.916;2024-02-15T04:18:22;16.80;;;11.60;;
76752;SDS011;65687;51.308;16.916;2024-02-15T04:23:24;15.90;;;10.20;;
76752;SDS011;65687;51.308;16.916;2024-02-15T04:28:28;17.40;;;10.30;;
76752;SDS011;65687;51.308;16.916;2024-02-15T04:33:30;16.50;;;11.10;;
76752;SDS011;65687;51.308;16.916;2024-02-15T04:38:31;19.10;;;11.40;;
76752;SDS011;65687;51.308;16.916;2024-02-15T04:43:35;23.90;;;14.40;;
76752;SDS011;65687;51.308;16.916;2024-02-15T04:48:39;29.90;;;16.70;;
76752;SDS011;65687;51.308;16.916;2024-02-15T04:53:43;37.50;;;18.40;;
76752;SDS011;65687;51.308;16.916;2024-02-15T04:58:47;29.40;;;17.60;;
76752;SDS011;65687;51.308;16.916;2024-02-15T05:03:49;34.60;;;19.30;;
76752;SDS011;65687;51.308;16.916;2024-02-15T05:08:51;40.10;;;20.00;;
76752;SDS011;65687;51.308;16.916;2024-02-15T05:13:52;25.00;;;13.80;;
76752;SDS011;65687;51.308;16.916;2024-02-15T05:18:54;20.40;;;11.90;;
76752;SDS011;65687;51.308;16.916;2024-02-15T05:23:56;20.30;;;13.10;;
76752;SDS011;65687;51.308;16.916;2024-02-15T05:28:58;18.90;;;11.60;;
76752;SDS011;65687;51.308;16.916;2024-02-15T05:34:00;23.80;;;13.80;;
76752;SDS011;65687;51.308;16.916;2024-02-15T05:39:02;18.30;;;9.80;;
76752;SDS011;65687;51.308;16.916;2024-02-15T05:44:05;16.40;;;11.40;;
76752;SDS011;65687;51.308;16.916;2024-02-15T05:49:08;17.50;;;11.30;;
76752;SDS011;65687;51.308;16.916;2024-02-15T05:54:16;17.60;;;11.50;;
76752;SDS011;65687;51.308;16.916;2024-02-15T05:59:19;23.00;;;13.60;;
76752;SDS011;65687;51.308;16.916;2024-02-15T06:04:21;22.90;;;14.30;;
76752;SDS011;65687;51.308;16.916;2024-02-15T06:09:25;19.10;;;12.60;;
76752;SDS011;65687;51.308;16.916;2024-02-15T06:14:29;20.20;;;13.00;;
76752;SDS011;65687;51.308;16.916;2024-02-15T06:19:30;21.00;;;13.10;;
76752;SDS011;65687;51.308;16.916;2024-02-15T06:24:34;18.00;;;11.90;;
76752;SDS011;65687;51.308;16.916;2024-02-15T06:29:35;21.10;;;12.70;;
76752;SDS011;65687;51.308;16.916;2024-02-15T06:34:56;16.00;;;10.80;;
76752;SDS011;65687;51.308;16.916;2024-02-15T06:40:16;19.00;;;12.10;;
76752;SDS011;65687;51.308;16.916;2024-02-15T06:45:18;16.60;;;11.50;;
76752;SDS011;65687;51.308;16.916;2024-02-15T06:50:20;20.00;;;12.10;;
76752;SDS011;65687;51.308;16.916;2024-02-15T06:55:23;17.90;;;11.90;;
76752;SDS011;65687;51.308;16.916;2024-02-15T07:00:25;16.00;;;10.80;;
76752;SDS011;65687;51.308;16.916;2024-02-15T07:05:26;17.20;;;11.90;;
76752;SDS011;65687;51.308;16.916;2024-02-15T07:10:29;17.80;;;12.60;;
76752;SDS011;65687;51.308;16.916;2024-02-15T07:15:32;17.30;;;12.20;;
76752;SDS011;65687;51.308;16.916;2024-02-15T07:20:39;19.50;;;13.90;;
76752;SDS011;65687;51.308;16.916;2024-02-15T07:25:40;17.40;;;12.60;;
76752;SDS011;65687;51.308;16.916;2024-02-15T07:30:42;17.40;;;11.10;;
76752;SDS011;65687;51.308;16.916;2024-02-15T07:35:44;16.10;;;11.50;;
76752;SDS011;65687;51.308;16.916;2024-02-15T07:40:46;16.90;;;11.50;;
76752;SDS011;65687;51.308;16.916;2024-02-15T07:45:47;19.00;;;11.60;;
76752;SDS011;65687;51.308;16.916;2024-02-15T07:55:52;23.90;;;12.90;;
76752;SDS011;65687;51.308;16.916;2024-02-15T08:00:54;21.60;;;13.00;;
76752;SDS011;65687;51.308;16.916;2024-02-15T08:05:57;20.40;;;12.60;;
76752;SDS011;65687;51.308;16.916;2024-02-15T08:10:59;16.70;;;11.20;;
76752;SDS011;65687;51.308;16.916;2024-02-15T08:16:03;16.60;;;12.30;;
76752;SDS011;65687;51.308;16.916;2024-02-15T08:21:07;20.30;;;11.70;;
76752;SDS011;65687;51.308;16.916;2024-02-15T08:26:09;18.70;;;12.10;;
76752;SDS011;65687;51.308;16.916;2024-02-15T08:31:14;19.40;;;13.00;;
76752;SDS011;65687;51.308;16.916;2024-02-15T08:36:16;23.80;;;14.20;;
76752;SDS011;65687;51.308;16.916;2024-02-15T08:41:18;21.30;;;14.10;;
76752;SDS011;65687;51.308;16.916;2024-02-15T08:46:21;21.00;;;13.80;;
76752;SDS011;65687;51.308;16.916;2024-02-15T08:51:25;19.70;;;12.50;;
76752;SDS011;65687;51.308;16.916;2024-02-15T08:56:27;18.60;;;12.10;;
76752;SDS011;65687;51.308;16.916;2024-02-15T09:01:28;20.10;;;14.10;;
76752;SDS011;65687;51.308;16.916;2024-02-15T09:11:33;18.40;;;10.50;;
76752;SDS011;65687;51.308;16.916;2024-02-15T09:16:36;17.80;;;11.50;;
76752;SDS011;65687;51.308;16.916;2024-02-15T09:21:37;21.60;;;14.20;;
76752;SDS011;65687;51.308;16.916;2024-02-15T09:26:39;24.60;;;14.80;;
76752;SDS011;65687;51.308;16.916;2024-02-15T09:31:41;26.20;;;14.40;;
76752;SDS011;65687;51.308;16.916;2024-02-15T09:36:43;23.50;;;14.70;;
76752;SDS011;65687;51.308;16.916;2024-02-15T09:41:44;21.40;;;13.00;;
76752;SDS011;65687;51.308;16.916;2024-02-15T09:46:46;29.10;;;16.50;;
76752;SDS011;65687;51.308;16.916;2024-02-15T09:51:56;16.40;;;10.90;;
76752;SDS011;65687;51.308;16.916;2024-02-15T09:57:01;21.60;;;14.00;;
76752;SDS011;65687;51.308;16.916;2024-02-15T10:02:05;21.80;;;15.30;;
76752;SDS011;65687;51.308;16.916;2024-02-15T10:07:15;17.50;;;11.20;;
76752;SDS011;65687;51.308;16.916;2024-02-15T10:12:19;15.90;;;10.70;;
76752;SDS011;65687;51.308;16.916;2024-02-15T10:17:25;17.00;;;11.00;;
76752;SDS011;65687;51.308;16.916;2024-02-15T10:22:28;20.00;;;11.20;;
76752;SDS011;65687;51.308;16.916;2024-02-15T10:27:29;20.00;;;12.80;;
76752;SDS011;65687;51.308;16.916;2024-02-15T10:32:34;23.10;;;15.00;;
76752;SDS011;65687;51.308;16.916;2024-02-15T10:37:36;21.60;;;12.20;;
76752;SDS011;65687;51.308;16.916;2024-02-15T10:42:40;22.30;;;14.20;;
76752;SDS011;65687;51.308;16.916;2024-02-15T10:47:44;21.60;;;12.20;;
76752;SDS011;65687;51.308;16.916;2024-02-15T10:52:56;28.30;;;14.70;;
76752;SDS011;65687;51.308;16.916;2024-02-15T10:58:00;18.70;;;11.20;;
76752;SDS011;65687;51.308;16.916;2024-02-15T11:03:09;22.30;;;16.60;;
76752;SDS011;65687;51.308;16.916;2024-02-15T11:08:16;19.40;;;13.40;;
76752;SDS011;65687;51.308;16.916;2024-02-15T11:13:22;28.50;;;20.40;;
76752;SDS011;65687;51.308;16.916;2024-02-15T11:23:50;46.20;;;26.70;;
76752;SDS011;65687;51.308;16.916;2024-02-15T11:28:52;39.70;;;26.60;;
76752;SDS011;65687;51.308;16.916;2024-02-15T11:33:56;52.00;;;29.10;;
76752;SDS011;65687;51.308;16.916;2024-02-15T11:38:57;62.40;;;33.10;;
76752;SDS011;65687;51.308;16.916;2024-02-15T11:43:59;44.00;;;27.50;;
76752;SDS011;65687;51.308;16.916;2024-02-15T11:49:03;32.40;;;20.10;;
76752;SDS011;65687;51.308;16.916;2024-02-15T11:54:05;27.60;;;17.30;;
76752;SDS011;65687;51.308;16.916;2024-02-15T11:59:08;18.40;;;12.00;;
76752;SDS011;65687;51.308;16.916;2024-02-15T12:04:13;21.10;;;13.40;;
76752;SDS011;65687;51.308;16.916;2024-02-15T12:15:03;15.90;;;11.50;;
76752;SDS011;65687;51.308;16.916;2024-02-15T12:20:24;16.40;;;11.50;;
76752;SDS011;65687;51.308;16.916;2024-02-15T12:25:26;14.70;;;10.80;;
76752;SDS011;65687;51.308;16.916;2024-02-15T12:30:32;17.10;;;11.00;;
76752;SDS011;65687;51.308;16.916;2024-02-15T12:35:37;14.70;;;9.40;;
76752;SDS011;65687;51.308;16.916;2024-02-15T12:40:39;16.90;;;10.10;;
76752;SDS011;65687;51.308;16.916;2024-02-15T12:50:43;14.30;;;8.70;;
76752;SDS011;65687;51.308;16.916;2024-02-15T12:55:45;11.70;;;8.20;;
76752;SDS011;65687;51.308;16.916;2024-02-15T13:00:55;12.20;;;9.20;;
76752;SDS011;65687;51.308;16.916;2024-02-15T13:05:59;11.40;;;8.70;;
76752;SDS011;65687;51.308;16.916;2024-02-15T13:11:01;11.50;;;7.80;;
76752;SDS011;65687;51.308;16.916;2024-02-15T13:16:04;14.10;;;9.00;;
76752;SDS011;65687;51.308;16.916;2024-02-15T13:21:07;16.10;;;11.50;;
76752;SDS011;65687;51.308;16.916;2024-02-15T13:26:11;13.60;;;9.50;;
76752;SDS011;65687;51.308;16.916;2024-02-15T13:31:13;10.10;;;7.40;;
76752;SDS011;65687;51.308;16.916;2024-02-15T13:36:14;26.90;;;18.00;;
76752;SDS011;65687;51.308;16.916;2024-02-15T13:41:16;21.90;;;13.60;;
76752;SDS011;65687;51.308;16.916;2024-02-15T13:46:18;20.90;;;12.90;;
76752;SDS011;65687;51.308;16.916;2024-02-15T13:51:21;16.40;;;10.80;;
76752;SDS011;65687;51.308;16.916;2024-02-15T13:56:23;12.40;;;7.30;;
76752;SDS011;65687;51.308;16.916;2024-02-15T14:01:25;11.10;;;7.80;;
76752;SDS011;65687;51.308;16.916;2024-02-15T14:06:27;38.00;;;19.40;;
76752;SDS011;65687;51.308;16.916;2024-02-15T14:11:29;25.80;;;18.60;;
76752;SDS011;65687;51.308;16.916;2024-02-15T14:16:31;17.10;;;11.90;;
76752;SDS011;65687;51.308;16.916;2024-02-15T14:21:34;18.90;;;14.40;;
76752;SDS011;65687;51.308;16.916;2024-02-15T14:26:39;16.10;;;10.80;;
76752;SDS011;65687;51.308;16.916;2024-02-15T14:31:41;14.70;;;9.20;;
76752;SDS011;65687;51.308;16.916;2024-02-15T14:37:01;39.80;;;26.00;;
76752;SDS011;65687;51.308;16.916;2024-02-15T14:42:03;11.60;;;8.80;;
76752;SDS011;65687;51.308;16.916;2024-02-15T14:47:06;31.70;;;26.20;;
76752;SDS011;65687;51.308;16.916;2024-02-15T14:52:08;17.30;;;13.80;;
76752;SDS011;65687;51.308;16.916;2024-02-15T14:57:10;15.50;;;10.30;;
76752;SDS011;65687;51.308;16.916;2024-02-15T15:02:11;28.30;;;17.00;;
76752;SDS011;65687;51.308;16.916;2024-02-15T15:07:13;23.10;;;15.20;;
76752;SDS011;65687;51.308;16.916;2024-02-15T15:12:33;30.70;;;18.90;;
76752;SDS011;65687;51.308;16.916;2024-02-15T15:17:38;15.20;;;9.20;;
76752;SDS011;65687;51.308;16.916;2024-02-15T15:22:40;12.40;;;6.90;;
76752;SDS011;65687;51.308;16.916;2024-02-15T15:27:42;9.70;;;6.40;;
76752;SDS011;65687;51.308;16.916;2024-02-15T15:32:43;11.70;;;7.30;;
76752;SDS011;65687;51.308;16.916;2024-02-15T15:37:47;10.90;;;7.40;;
76752;SDS011;65687;51.308;16.916;2024-02-15T15:42:52;22.20;;;13.80;;
76752;SDS011;65687;51.308;16.916;2024-02-15T15:47:54;12.30;;;7.80;;
76752;SDS011;65687;51.308;16.916;2024-02-15T15:52:56;13.20;;;8.90;;
76752;SDS011;65687;51.308;16.916;2024-02-15T15:57:58;11.30;;;8.00;;
76752;SDS011;65687;51.308;16.916;2024-02-15T16:03:00;14.40;;;7.90;;
76752;SDS011;65687;51.308;16.916;2024-02-15T16:08:03;11.10;;;6.70;;
76752;SDS011;65687;51.308;16.916;2024-02-15T16:18:07;12.80;;;8.60;;
76752;SDS011;65687;51.308;16.916;2024-02-15T16:23:09;13.70;;;8.60;;
76752;SDS011;65687;51.308;16.916;2024-02-15T16:28:11;16.00;;;8.10;;
76752;SDS011;65687;51.308;16.916;2024-02-15T16:33:12;14.30;;;9.20;;
76752;SDS011;65687;51.308;16.916;2024-02-15T16:38:14;18.60;;;11.10;;
76752;SDS011;65687;51.308;16.916;2024-02-15T16:43:17;22.70;;;15.00;;
76752;SDS011;65687;51.308;16.916;2024-02-15T16:48:19;43.70;;;23.70;;
76752;SDS011;65687;51.308;16.916;2024-02-15T16:53:20;46.30;;;23.60;;
76752;SDS011;65687;51.308;16.916;2024-02-15T16:58:22;29.10;;;18.10;;
76752;SDS011;65687;51.308;16.916;2024-02-15T17:03:25;26.70;;;16.20;;
76752;SDS011;65687;51.308;16.916;2024-02-15T17:08:27;26.60;;;14.80;;
76752;SDS011;65687;51.308;16.916;2024-02-15T17:13:29;25.90;;;14.30;;
76752;SDS011;65687;51.308;16.916;2024-02-15T17:18:31;21.10;;;13.40;;
76752;SDS011;65687;51.308;16.916;2024-02-15T17:23:33;44.50;;;23.30;;
76752;SDS011;65687;51.308;16.916;2024-02-15T17:28:34;57.70;;;30.10;;
76752;SDS011;65687;51.308;16.916;2024-02-15T17:38:42;69.60;;;31.60;;
76752;SDS011;65687;51.308;16.916;2024-02-15T17:43:44;63.30;;;33.20;;
76752;SDS011;65687;51.308;16.916;2024-02-15T17:48:47;64.70;;;34.20;;
76752;SDS011;65687;51.308;16.916;2024-02-15T17:53:48;53.80;;;28.80;;
76752;SDS011;65687;51.308;16.916;2024-02-15T17:58:50;51.40;;;28.40;;
76752;SDS011;65687;51.308;16.916;2024-02-15T18:03:52;38.40;;;23.70;;
76752;SDS011;65687;51.308;16.916;2024-02-15T18:08:56;36.60;;;20.40;;
76752;SDS011;65687;51.308;16.916;2024-02-15T18:13:58;38.10;;;22.50;;
76752;SDS011;65687;51.308;16.916;2024-02-15T18:19:00;36.70;;;23.40;;
76752;SDS011;65687;51.308;16.916;2024-02-15T18:24:05;58.30;;;35.80;;
76752;SDS011;65687;51.308;16.916;2024-02-15T18:29:07;52.30;;;30.50;;
76752;SDS011;65687;51.308;16.916;2024-02-15T18:39:11;31.30;;;18.70;;
76752;SDS011;65687;51.308;16.916;2024-02-15T18:44:13;28.60;;;19.40;;
76752;SDS011;65687;51.308;16.916;2024-02-15T18:49:15;27.20;;;15.80;;
76752;SDS011;65687;51.308;16.916;2024-02-15T18:54:17;18.30;;;11.80;;
76752;SDS011;65687;51.308;16.916;2024-02-15T18:59:22;21.40;;;13.40;;
76752;SDS011;65687;51.308;16.916;2024-02-15T19:04:25;16.80;;;11.60;;
76752;SDS011;65687;51.308;16.916;2024-02-15T19:09:27;15.40;;;11.70;;
76752;SDS011;65687;51.308;16.916;2024-02-15T19:14:30;15.80;;;11.00;;
76752;SDS011;65687;51.308;16.916;2024-02-15T19:19:33;18.50;;;12.80;;
76752;SDS011;65687;51.308;16.916;2024-02-15T19:24:36;16.30;;;12.30;;
76752;SDS011;65687;51.308;16.916;2024-02-15T19:29:38;15.80;;;11.10;;
76752;SDS011;65687;51.308;16.916;2024-02-15T19:34:42;20.30;;;14.70;;
76752;SDS011;65687;51.308;16.916;2024-02-15T19:39:43;43.40;;;22.00;;
76752;SDS011;65687;51.308;16.916;2024-02-15T19:44:47;40.50;;;22.20;;
76752;SDS011;65687;51.308;16.916;2024-02-15T19:54:51;27.90;;;16.00;;
76752;SDS011;65687;51.308;16.916;2024-02-15T19:59:53;26.30;;;17.20;;
76752;SDS011;65687;51.308;16.916;2024-02-15T20:04:55;24.00;;;13.10;;
76752;SDS011;65687;51.308;16.916;2024-02-15T20:09:58;25.60;;;15.30;;
76752;SDS011;65687;51.308;16.916;2024-02-15T20:15:00;22.80;;;13.40;;
76752;SDS011;65687;51.308;16.916;2024-02-15T20:20:02;20.40;;;13.10;;
76752;SDS011;65687;51.308;16.916;2024-02-15T20:25:07;23.30;;;15.10;;
76752;SDS011;65687;51.308;16.916;2024-02-15T20:30:11;18.40;;;12.80;;
76752;SDS011;65687;51.308;16.916;2024-02-15T20:35:13;20.30;;;13.20;;
76752;SDS011;65687;51.308;16.916;2024-02-15T20:40:15;20.90;;;12.80;;
76752;SDS011;65687;51.308;16.916;2024-02-15T20:45:18;24.00;;;13.70;;
76752;SDS011;65687;51.308;16.916;2024-02-15T20:50:21;19.20;;;12.80;;
76752;SDS011;65687;51.308;16.916;2024-02-15T20:55:23;21.40;;;12.90;;
76752;SDS011;65687;51.308;16.916;2024-02-15T21:00:25;22.50;;;13.20;;
76752;SDS011;65687;51.308;16.916;2024-02-15T21:05:30;24.00;;;12.30;;
76752;SDS011;65687;51.308;16.916;2024-02-15T21:10:32;23.70;;;14.10;;
76752;SDS011;65687;51.308;16.916;2024-02-15T21:15:34;26.50;;;15.00;;
76752;SDS011;65687;51.308;16.916;2024-02-15T21:20:38;23.50;;;15.70;;
76752;SDS011;65687;51.308;16.916;2024-02-15T21:25:40;24.50;;;15.00;;
76752;SDS011;65687;51.308;16.916;2024-02-15T21:30:42;24.90;;;13.70;;
76752;SDS011;65687;51.308;16.916;2024-02-15T21:35:44;25.50;;;15.30;;
76752;SDS011;65687;51.308;16.916;2024-02-15T21:40:46;23.40;;;14.80;;
76752;SDS011;65687;51.308;16.916;2024-02-15T21:45:48;24.50;;;14.40;;
76752;SDS011;65687;51.308;16.916;2024-02-15T21:50:50;27.60;;;16.00;;
76752;SDS011;65687;51.308;16.916;2024-02-15T21:55:52;28.40;;;15.90;;
76752;SDS011;65687;51.308;16.916;2024-02-15T22:00:53;28.00;;;17.50;;
76752;SDS011;65687;51.308;16.916;2024-02-15T22:05:56;25.50;;;16.10;;
76752;SDS011;65687;51.308;16.916;2024-02-15T22:10:58;32.20;;;19.00;;
76752;SDS011;65687;51.308;16.916;2024-02-15T22:15:59;25.90;;;15.00;;
76752;SDS011;65687;51.308;16.916;2024-02-15T22:21:01;28.90;;;17.80;;
76752;SDS011;65687;51.308;16.916;2024-02-15T22:26:12;27.60;;;17.50;;
76752;SDS011;65687;51.308;16.916;2024-02-15T22:31:17;24.50;;;15.90;;
76752;SDS011;65687;51.308;16.916;2024-02-15T22:41:25;22.90;;;13.30;;
76752;SDS011;65687;51.308;16.916;2024-02-15T22:46:27;25.80;;;15.20;;
76752;SDS011;65687;51.308;16.916;2024-02-15T22:51:30;21.50;;;13.20;;
76752;SDS011;65687;51.308;16.916;2024-02-15T22:56:32;20.40;;;11.90;;
76752;SDS011;65687;51.308;16.916;2024-02-15T23:01:35;21.80;;;13.40;;
76752;SDS011;65687;51.308;16.916;2024-02-15T23:06:38;23.60;;;14.40;;
76752;SDS011;65687;51.308;16.916;2024-02-15T23:11:40;23.60;;;13.60;;
76752;SDS011;65687;51.308;16.916;2024-02-15T23:16:41;22.50;;;14.00;;
76752;SDS011;65687;51.308;16.916;2024-02-15T23:21:43;23.10;;;13.40;;
76752;SDS011;65687;51.308;16.916;2024-02-15T23:26:45;26.60;;;14.90;;
76752;SDS011;65687;51.308;16.916;2024-02-15T23:31:49;19.70;;;11.50;;
76752;SDS011;65687;51.308;16.916;2024-02-15T23:36:51;21.80;;;13.10;;
76752;SDS011;65687;51.308;16.916;2024-02-15T23:42:12;21.60;;;12.00;;
76752;SDS011;65687;51.308;16.916;2024-02-15T23:47:14;22.50;;;12.30;;
76752;SDS011;65687;51.308;16.916;2024-02-15T23:52:16;18.20;;;11.20;;
76752;SDS011;65687;51.308;16.916;2024-02-15T23:57:19;19.60;;;12.80;;
